Tokyo International Airport
RJTT : now visible

Airfield :











YOU CAN JOIN US ON...

 
LOGIN :

Register | Disclaimer

   EN    FR    IT 

 









Legend :    VFR   Marginal VFR   IFR   Intensive IFR   Very Intensive IFR
Visi :
Ceiling :
>= 8 km
>= 3000ft
5 to 8 km
1000 to 3000 ft
1500m to 5 km
500 to 1000 ft
800 to 1500m
200 to 500 ft
< 800m
< 200 ft
Symbols :   Thunderstorms  Fog  Heavy snow  Heavy precipitations  Wind > 20 kt







- Airport Elevation : 35 ft
- IATA code : HND


RJTT - Tokyo International

CURRENT METAR :
  • 250400Z 12008KT 9999 FEW025 29/21 Q1009 BECMG 18012KT

EXPIRED METARs :
  • 250330Z 11005KT 070V140 9999 FEW025 29/21 Q1009 BECMG TL0500 17010KT RMK 1CU025 A2980
  • 250300Z 11004KT 080V140 9999 FEW025 29/22 Q1009 BECMG 17010KT RMK 1CU025 A2981
  • 250230Z 09004KT 060V130 9999 FEW025 28/22 Q1009 NOSIG RMK 1CU025 A2981
  • 250200Z 11004KT 080V140 9999 FEW025 28/21 Q1009 NOSIG
  • 250130Z 06005KT 9999 FEW025 27/21 Q1010 BECMG TL0230 08006KT RMK 1CU025 A2982

TAF TAF RJTT
Valid from the 25 at 00:00 until the 26 at 06:00 UTC


242305Z 2500/2606 08007KT 9999 FEW030
BECMG 2503/2505 19015KT
BECMG 2512/2515 13008KT
BECMG 2518/2521 03012KT
BECMG 2603/2606 10014KT
No reported NOTAMs for that airfield.



MET'MAP, your aeronautical weather chart ! - Copyright ORBIFLY December 2007 - Disclaimer

ORBIFLY MET'MAP TEAM :

Programming & Development : Alexandra Zaïnal
Concept & Development : Baudouin d'Aumeries
Co-Development & Prog : Marc-Olivier Méhu
Technical & hardware support : Manuel Goepfert

Contact : metmap@orbifly.com




SOURCES & CREDITS :

   NOAA       Earth
Advisory